CYPQ

Peterborough Airport

Peterborough, , Canada
METAR CYPQ 241445Z AUTO 06005KT 010V090 9SM SCT019 BKN065 BKN160 19/15 A2984 RMK SLP106 DENSITY ALT 1300FT
Observed Flight Rules
Jun-24 @ 14:45 UTC (18 minutes ago) Visual Flight Rules
Wind Visibility Clouds
60° at 5 knots 9 miles
  • Scattered at 1,900' AGL
  • Broken at 6,500' AGL
  • Broken at 16,000' AGL
Temperatures Readings
Current 19°C / 66°F
Dewpoint 15°C / 59°F
Humidity 78%
Altimeter 29.84" Hg
Pressure 1010.6 hPa
Elevation 191
METAR CYPQ 241445Z AUTO 06005KT 010V090 9SM SCT019 BKN065 BKN160 19/15 A2984 RMK SLP106 DENSITY ALT 1300FT
Observed Flight Rules
Jun-24 @ 14:45 UTC
(18 minutes ago)
VFR
Wind Visibility
60° at 5 knots 9 miles
Clouds
  • Scattered at 1,900' AGL
  • Broken at 6,500' AGL
  • Broken at 16,000' AGL
Temperature Dewpoint
19°C / 66°F 15°C / 59°F
Humidity Altimeter Pressure
78% 29.84" Hg 1010.6 hPa